sensor_id;sensor_type;location;lat;lon;timestamp;pressure;altitude;pressure_sealevel;temperature;humidity
6506;BME280;3286;49.858;8.768;2023-07-31T00:02:19;99042.28;;;20.09;45.20
6506;BME280;3286;49.858;8.768;2023-07-31T00:04:46;99032.78;;;20.64;44.45
6506;BME280;3286;49.858;8.768;2023-07-31T00:07:14;99046.69;;;20.54;45.05
6506;BME280;3286;49.858;8.768;2023-07-31T00:09:41;99034.25;;;20.60;45.49
6506;BME280;3286;49.858;8.768;2023-07-31T00:12:08;99037.81;;;20.79;44.44
6506;BME280;3286;49.858;8.768;2023-07-31T00:14:36;99036.28;;;20.64;44.96
6506;BME280;3286;49.858;8.768;2023-07-31T00:17:03;99041.97;;;20.75;44.67
6506;BME280;3286;49.858;8.768;2023-07-31T00:19:30;99040.91;;;20.57;45.12
6506;BME280;3286;49.858;8.768;2023-07-31T00:21:57;99038.38;;;20.37;45.36
6506;BME280;3286;49.858;8.768;2023-07-31T00:24:24;99038.06;;;20.26;45.93
6506;BME280;3286;49.858;8.768;2023-07-31T00:26:51;99033.06;;;20.30;46.10
6506;BME280;3286;49.858;8.768;2023-07-31T00:29:18;99048.03;;;20.45;45.66
6506;BME280;3286;49.858;8.768;2023-07-31T00:31:46;99033.44;;;20.34;45.71
6506;BME280;3286;49.858;8.768;2023-07-31T00:34:13;99039.47;;;20.54;45.33
6506;BME280;3286;49.858;8.768;2023-07-31T00:36:40;99035.19;;;20.72;44.49
6506;BME280;3286;49.858;8.768;2023-07-31T00:39:06;99036.88;;;20.66;44.60
6506;BME280;3286;49.858;8.768;2023-07-31T00:41:33;99034.59;;;20.45;44.40
6506;BME280;3286;49.858;8.768;2023-07-31T00:44:00;99034.53;;;20.26;45.52
6506;BME280;3286;49.858;8.768;2023-07-31T00:46:27;99037.09;;;20.39;45.28
6506;BME280;3286;49.858;8.768;2023-07-31T00:48:56;99026.25;;;20.78;44.25
6506;BME280;3286;49.858;8.768;2023-07-31T00:51:22;99019.47;;;20.25;44.92
6506;BME280;3286;49.858;8.768;2023-07-31T00:53:49;99021.88;;;20.59;43.88
6506;BME280;3286;49.858;8.768;2023-07-31T00:56:16;99007.78;;;20.45;44.33
6506;BME280;3286;49.858;8.768;2023-07-31T00:58:43;99002.34;;;20.26;44.55
6506;BME280;3286;49.858;8.768;2023-07-31T01:01:09;99003.00;;;20.47;44.05
6506;BME280;3286;49.858;8.768;2023-07-31T01:03:36;99003.44;;;20.69;43.42
6506;BME280;3286;49.858;8.768;2023-07-31T01:06:18;99004.72;;;20.60;43.30
6506;BME280;3286;49.858;8.768;2023-07-31T01:08:54;99005.66;;;20.72;43.27
6506;BME280;3286;49.858;8.768;2023-07-31T01:11:28;99012.09;;;20.46;43.57
6506;BME280;3286;49.858;8.768;2023-07-31T01:13:55;99014.72;;;20.52;43.20
6506;BME280;3286;49.858;8.768;2023-07-31T01:16:23;99007.66;;;20.58;43.67
6506;BME280;3286;49.858;8.768;2023-07-31T01:18:49;99005.59;;;20.79;43.27
6506;BME280;3286;49.858;8.768;2023-07-31T01:21:30;99003.09;;;20.59;43.18
6506;BME280;3286;49.858;8.768;2023-07-31T01:24:20;98994.22;;;20.58;42.97
6506;BME280;3286;49.858;8.768;2023-07-31T01:26:53;98995.66;;;20.61;43.15
6506;BME280;3286;49.858;8.768;2023-07-31T01:29:26;98998.25;;;20.67;42.81
6506;BME280;3286;49.858;8.768;2023-07-31T01:31:56;98998.41;;;20.54;43.28
6506;BME280;3286;49.858;8.768;2023-07-31T01:34:26;98992.59;;;20.57;43.20
6506;BME280;3286;49.858;8.768;2023-07-31T01:36:53;98989.91;;;20.76;42.60
6506;BME280;3286;49.858;8.768;2023-07-31T01:39:20;98996.25;;;20.37;43.58
6506;BME280;3286;49.858;8.768;2023-07-31T01:41:47;98988.13;;;20.51;43.58
6506;BME280;3286;49.858;8.768;2023-07-31T01:44:15;98996.06;;;20.39;43.36
6506;BME280;3286;49.858;8.768;2023-07-31T01:46:42;99000.25;;;20.79;42.69
6506;BME280;3286;49.858;8.768;2023-07-31T01:49:08;98986.63;;;20.74;42.61
6506;BME280;3286;49.858;8.768;2023-07-31T01:51:35;98991.13;;;20.36;43.56
6506;BME280;3286;49.858;8.768;2023-07-31T01:54:02;98991.91;;;21.06;42.54
6506;BME280;3286;49.858;8.768;2023-07-31T01:56:29;98981.22;;;20.99;42.25
6506;BME280;3286;49.858;8.768;2023-07-31T01:58:56;98976.50;;;20.76;42.54
6506;BME280;3286;49.858;8.768;2023-07-31T02:01:24;98980.59;;;20.85;42.41
6506;BME280;3286;49.858;8.768;2023-07-31T02:03:50;98984.41;;;20.70;42.89
6506;BME280;3286;49.858;8.768;2023-07-31T02:06:17;98970.72;;;20.97;42.62
6506;BME280;3286;49.858;8.768;2023-07-31T02:08:44;98976.91;;;20.98;42.52
6506;BME280;3286;49.858;8.768;2023-07-31T02:11:11;98965.94;;;20.99;42.33
6506;BME280;3286;49.858;8.768;2023-07-31T02:13:38;98966.16;;;20.98;42.67
6506;BME280;3286;49.858;8.768;2023-07-31T02:16:04;98964.16;;;20.49;43.16
6506;BME280;3286;49.858;8.768;2023-07-31T02:18:32;98958.28;;;20.40;43.69
6506;BME280;3286;49.858;8.768;2023-07-31T02:20:59;98958.25;;;20.66;43.00
6506;BME280;3286;49.858;8.768;2023-07-31T02:23:26;98950.34;;;20.71;43.21
6506;BME280;3286;49.858;8.768;2023-07-31T02:25:52;98937.59;;;20.66;43.35
6506;BME280;3286;49.858;8.768;2023-07-31T02:28:19;98940.94;;;20.62;43.60
6506;BME280;3286;49.858;8.768;2023-07-31T02:30:46;98940.03;;;20.05;44.75
6506;BME280;3286;49.858;8.768;2023-07-31T02:33:13;98931.63;;;20.46;43.71
6506;BME280;3286;49.858;8.768;2023-07-31T02:35:41;98937.28;;;20.12;45.07
6506;BME280;3286;49.858;8.768;2023-07-31T02:38:07;98947.81;;;20.32;44.49
6506;BME280;3286;49.858;8.768;2023-07-31T02:40:34;98936.22;;;20.13;44.99
6506;BME280;3286;49.858;8.768;2023-07-31T02:43:01;98935.53;;;19.99;45.46
6506;BME280;3286;49.858;8.768;2023-07-31T02:45:27;98937.66;;;20.16;45.13
6506;BME280;3286;49.858;8.768;2023-07-31T02:47:54;98935.44;;;20.31;44.92
6506;BME280;3286;49.858;8.768;2023-07-31T02:50:21;98936.19;;;19.94;45.85
6506;BME280;3286;49.858;8.768;2023-07-31T02:52:49;98933.94;;;19.91;46.24
6506;BME280;3286;49.858;8.768;2023-07-31T02:55:15;98943.78;;;19.65;46.60
6506;BME280;3286;49.858;8.768;2023-07-31T02:57:42;98945.00;;;20.02;45.63
6506;BME280;3286;49.858;8.768;2023-07-31T03:00:09;98946.91;;;20.20;45.15
6506;BME280;3286;49.858;8.768;2023-07-31T03:02:36;98945.66;;;20.22;44.73
6506;BME280;3286;49.858;8.768;2023-07-31T03:05:03;98942.72;;;20.05;45.54
6506;BME280;3286;49.858;8.768;2023-07-31T03:07:29;98946.53;;;20.41;44.99
6506;BME280;3286;49.858;8.768;2023-07-31T03:09:58;98946.94;;;20.13;45.35
6506;BME280;3286;49.858;8.768;2023-07-31T03:12:24;98950.50;;;20.07;45.52
6506;BME280;3286;49.858;8.768;2023-07-31T03:14:51;98960.56;;;19.86;46.37
6506;BME280;3286;49.858;8.768;2023-07-31T03:17:17;98960.19;;;19.76;46.22
6506;BME280;3286;49.858;8.768;2023-07-31T03:19:44;98966.56;;;19.81;46.47
6506;BME280;3286;49.858;8.768;2023-07-31T03:22:11;98955.44;;;19.78;46.57
6506;BME280;3286;49.858;8.768;2023-07-31T03:24:37;98956.84;;;19.87;46.17
6506;BME280;3286;49.858;8.768;2023-07-31T03:27:06;98954.31;;;19.99;45.79
6506;BME280;3286;49.858;8.768;2023-07-31T03:29:32;98946.75;;;20.15;45.78
6506;BME280;3286;49.858;8.768;2023-07-31T03:31:59;98948.38;;;20.16;45.63
6506;BME280;3286;49.858;8.768;2023-07-31T03:34:26;98945.72;;;19.90;46.01
6506;BME280;3286;49.858;8.768;2023-07-31T03:36:52;98952.06;;;19.57;46.78
6506;BME280;3286;49.858;8.768;2023-07-31T03:39:19;98940.94;;;20.18;45.71
6506;BME280;3286;49.858;8.768;2023-07-31T03:41:46;98941.97;;;19.59;46.96
6506;BME280;3286;49.858;8.768;2023-07-31T03:44:14;98949.25;;;19.45;47.70
6506;BME280;3286;49.858;8.768;2023-07-31T03:46:40;98946.44;;;20.04;46.21
6506;BME280;3286;49.858;8.768;2023-07-31T03:49:07;98940.06;;;19.98;46.66
6506;BME280;3286;49.858;8.768;2023-07-31T03:51:34;98953.75;;;19.83;47.83
6506;BME280;3286;49.858;8.768;2023-07-31T03:54:00;98949.84;;;19.86;48.53
6506;BME280;3286;49.858;8.768;2023-07-31T03:56:27;98954.75;;;20.21;47.69
6506;BME280;3286;49.858;8.768;2023-07-31T03:58:53;98955.63;;;19.83;49.25
6506;BME280;3286;49.858;8.768;2023-07-31T04:01:21;98947.72;;;19.95;49.56
6506;BME280;3286;49.858;8.768;2023-07-31T04:03:48;98951.63;;;19.99;49.56
6506;BME280;3286;49.858;8.768;2023-07-31T04:06:15;98954.72;;;19.64;50.70
6506;BME280;3286;49.858;8.768;2023-07-31T04:08:43;98959.03;;;19.65;50.63
6506;BME280;3286;49.858;8.768;2023-07-31T04:11:10;98959.94;;;19.52;50.91
6506;BME280;3286;49.858;8.768;2023-07-31T04:13:36;98954.81;;;19.76;50.12
6506;BME280;3286;49.858;8.768;2023-07-31T04:16:03;98950.59;;;19.61;50.33
6506;BME280;3286;49.858;8.768;2023-07-31T04:18:31;98954.78;;;19.50;50.86
6506;BME280;3286;49.858;8.768;2023-07-31T04:20:58;98953.69;;;19.65;50.20
6506;BME280;3286;49.858;8.768;2023-07-31T04:23:26;98954.75;;;19.57;50.47
6506;BME280;3286;49.858;8.768;2023-07-31T04:25:53;98955.44;;;19.00;51.71
6506;BME280;3286;49.858;8.768;2023-07-31T04:28:19;98955.63;;;19.05;50.94
6506;BME280;3286;49.858;8.768;2023-07-31T04:30:46;98947.50;;;19.25;50.94
6506;BME280;3286;49.858;8.768;2023-07-31T04:33:13;98944.34;;;19.35;50.10
6506;BME280;3286;49.858;8.768;2023-07-31T04:35:41;98933.53;;;19.17;50.80
6506;BME280;3286;49.858;8.768;2023-07-31T04:38:07;98933.09;;;19.27;50.36
6506;BME280;3286;49.858;8.768;2023-07-31T04:40:34;98942.44;;;19.10;50.84
6506;BME280;3286;49.858;8.768;2023-07-31T04:43:01;98936.13;;;19.30;49.68
6506;BME280;3286;49.858;8.768;2023-07-31T04:45:28;98928.50;;;19.34;49.47
6506;BME280;3286;49.858;8.768;2023-07-31T04:47:55;98935.44;;;19.09;49.91
6506;BME280;3286;49.858;8.768;2023-07-31T04:50:21;98932.94;;;19.08;50.37
6506;BME280;3286;49.858;8.768;2023-07-31T04:52:49;98930.41;;;19.27;49.64
6506;BME280;3286;49.858;8.768;2023-07-31T04:55:16;98934.50;;;19.29;49.99
6506;BME280;3286;49.858;8.768;2023-07-31T04:57:43;98931.47;;;19.19;49.46
6506;BME280;3286;49.858;8.768;2023-07-31T05:00:10;98926.63;;;19.34;48.90
6506;BME280;3286;49.858;8.768;2023-07-31T05:02:37;98930.72;;;19.44;49.16
6506;BME280;3286;49.858;8.768;2023-07-31T05:05:04;98928.22;;;19.49;48.50
6506;BME280;3286;49.858;8.768;2023-07-31T05:07:30;98923.78;;;19.68;48.21
6506;BME280;3286;49.858;8.768;2023-07-31T05:09:58;98923.84;;;19.54;48.49
6506;BME280;3286;49.858;8.768;2023-07-31T05:12:25;98931.06;;;19.15;49.32
6506;BME280;3286;49.858;8.768;2023-07-31T05:14:52;98921.25;;;19.02;49.83
6506;BME280;3286;49.858;8.768;2023-07-31T05:17:18;98923.22;;;19.20;49.28
6506;BME280;3286;49.858;8.768;2023-07-31T05:19:45;98913.34;;;19.21;48.81
6506;BME280;3286;49.858;8.768;2023-07-31T05:22:11;98916.28;;;19.06;49.02
6506;BME280;3286;49.858;8.768;2023-07-31T05:24:38;98910.91;;;19.13;48.86
6506;BME280;3286;49.858;8.768;2023-07-31T05:27:07;98904.19;;;19.67;47.54
6506;BME280;3286;49.858;8.768;2023-07-31T05:29:35;98916.03;;;19.53;47.91
6506;BME280;3286;49.858;8.768;2023-07-31T05:32:01;98909.34;;;19.69;47.97
6506;BME280;3286;49.858;8.768;2023-07-31T05:34:28;98911.88;;;19.57;48.04
6506;BME280;3286;49.858;8.768;2023-07-31T05:36:55;98907.25;;;20.03;46.96
6506;BME280;3286;49.858;8.768;2023-07-31T05:39:21;98915.03;;;19.47;48.77
6506;BME280;3286;49.858;8.768;2023-07-31T05:41:48;98902.34;;;19.68;48.06
6506;BME280;3286;49.858;8.768;2023-07-31T05:44:16;98910.44;;;19.87;47.60
6506;BME280;3286;49.858;8.768;2023-07-31T05:46:43;98911.03;;;19.89;48.31
6506;BME280;3286;49.858;8.768;2023-07-31T05:49:09;98912.00;;;20.01;48.04
6506;BME280;3286;49.858;8.768;2023-07-31T05:51:36;98908.44;;;19.82;47.69
6506;BME280;3286;49.858;8.768;2023-07-31T05:54:03;98913.44;;;19.72;47.91
6506;BME280;3286;49.858;8.768;2023-07-31T05:56:29;98912.16;;;20.06;47.16
6506;BME280;3286;49.858;8.768;2023-07-31T05:58:57;98912.69;;;20.15;47.31
6506;BME280;3286;49.858;8.768;2023-07-31T06:01:25;98904.94;;;20.07;46.89
6506;BME280;3286;49.858;8.768;2023-07-31T06:03:52;98911.44;;;20.18;46.58
6506;BME280;3286;49.858;8.768;2023-07-31T06:06:18;98906.88;;;20.18;46.75
6506;BME280;3286;49.858;8.768;2023-07-31T06:08:45;98903.69;;;20.09;46.71
6506;BME280;3286;49.858;8.768;2023-07-31T06:11:12;98901.81;;;20.10;46.89
6506;BME280;3286;49.858;8.768;2023-07-31T06:13:38;98907.66;;;20.25;46.49
6506;BME280;3286;49.858;8.768;2023-07-31T06:16:05;98903.53;;;19.72;47.83
6506;BME280;3286;49.858;8.768;2023-07-31T06:18:33;98890.78;;;19.67;47.91
6506;BME280;3286;49.858;8.768;2023-07-31T06:21:00;98902.41;;;19.54;48.24
6506;BME280;3286;49.858;8.768;2023-07-31T06:23:26;98892.66;;;19.67;48.05
6506;BME280;3286;49.858;8.768;2023-07-31T06:25:53;98896.22;;;19.86;47.75
6506;BME280;3286;49.858;8.768;2023-07-31T06:28:19;98893.16;;;19.82;47.79
6506;BME280;3286;49.858;8.768;2023-07-31T06:30:46;98882.84;;;20.30;47.06
6506;BME280;3286;49.858;8.768;2023-07-31T06:33:13;98891.38;;;20.46;46.93
6506;BME280;3286;49.858;8.768;2023-07-31T06:35:41;98880.47;;;19.71;48.16
6506;BME280;3286;49.858;8.768;2023-07-31T06:38:08;98886.00;;;20.46;46.57
6506;BME280;3286;49.858;8.768;2023-07-31T06:40:34;98887.75;;;20.15;47.62
6506;BME280;3286;49.858;8.768;2023-07-31T06:43:01;98901.66;;;20.49;46.86
6506;BME280;3286;49.858;8.768;2023-07-31T06:45:33;98894.13;;;20.58;46.16
6506;BME280;3286;49.858;8.768;2023-07-31T06:48:00;98895.84;;;20.52;46.28
6506;BME280;3286;49.858;8.768;2023-07-31T06:50:27;98891.41;;;20.83;46.22
6506;BME280;3286;49.858;8.768;2023-07-31T06:52:55;98898.03;;;20.80;45.87
6506;BME280;3286;49.858;8.768;2023-07-31T06:55:22;98896.97;;;20.63;46.17
6506;BME280;3286;49.858;8.768;2023-07-31T06:57:50;98892.13;;;20.90;45.50
6506;BME280;3286;49.858;8.768;2023-07-31T07:00:18;98892.53;;;21.06;45.69
6506;BME280;3286;49.858;8.768;2023-07-31T07:02:46;98894.94;;;20.58;46.50
6506;BME280;3286;49.858;8.768;2023-07-31T07:05:14;98889.88;;;20.68;46.54
6506;BME280;3286;49.858;8.768;2023-07-31T07:07:41;98883.63;;;20.56;47.26
6506;BME280;3286;49.858;8.768;2023-07-31T07:10:09;98897.72;;;21.19;45.38
6506;BME280;3286;49.858;8.768;2023-07-31T07:12:36;98886.81;;;21.02;45.97
6506;BME280;3286;49.858;8.768;2023-07-31T07:15:03;98885.66;;;20.79;46.35
6506;BME280;3286;49.858;8.768;2023-07-31T07:17:30;98885.47;;;20.93;46.26
6506;BME280;3286;49.858;8.768;2023-07-31T07:19:57;98880.25;;;20.98;46.42
6506;BME280;3286;49.858;8.768;2023-07-31T07:22:24;98886.13;;;21.37;45.85
6506;BME280;3286;49.858;8.768;2023-07-31T07:24:52;98883.50;;;21.61;45.37
6506;BME280;3286;49.858;8.768;2023-07-31T07:27:20;98889.41;;;21.82;45.48
6506;BME280;3286;49.858;8.768;2023-07-31T07:29:46;98880.63;;;21.75;44.83
6506;BME280;3286;49.858;8.768;2023-07-31T07:32:13;98872.22;;;21.95;44.19
6506;BME280;3286;49.858;8.768;2023-07-31T07:34:40;98880.75;;;21.80;44.87
6506;BME280;3286;49.858;8.768;2023-07-31T07:37:06;98875.88;;;22.12;44.18
6506;BME280;3286;49.858;8.768;2023-07-31T07:39:33;98876.66;;;22.01;43.88
6506;BME280;3286;49.858;8.768;2023-07-31T07:42:00;98880.88;;;21.85;44.84
6506;BME280;3286;49.858;8.768;2023-07-31T07:44:28;98875.19;;;21.51;45.08
6506;BME280;3286;49.858;8.768;2023-07-31T07:46:55;98866.50;;;21.79;44.52
6506;BME280;3286;49.858;8.768;2023-07-31T07:49:21;98872.38;;;21.46;45.39
6506;BME280;3286;49.858;8.768;2023-07-31T07:51:48;98864.91;;;21.17;45.90
6506;BME280;3286;49.858;8.768;2023-07-31T07:54:15;98865.63;;;20.94;46.51
6506;BME280;3286;49.858;8.768;2023-07-31T07:56:43;98870.28;;;21.17;45.56
6506;BME280;3286;49.858;8.768;2023-07-31T07:59:09;98866.47;;;21.25;45.47
6506;BME280;3286;49.858;8.768;2023-07-31T08:01:37;98869.22;;;21.18;45.97
6506;BME280;3286;49.858;8.768;2023-07-31T08:04:04;98863.06;;;21.18;45.96
6506;BME280;3286;49.858;8.768;2023-07-31T08:06:30;98867.78;;;21.04;45.95
6506;BME280;3286;49.858;8.768;2023-07-31T08:08:57;98867.47;;;21.12;46.09
6506;BME280;3286;49.858;8.768;2023-07-31T08:11:24;98859.66;;;21.10;46.16
6506;BME280;3286;49.858;8.768;2023-07-31T08:13:50;98857.81;;;21.65;45.64
6506;BME280;3286;49.858;8.768;2023-07-31T08:16:17;98858.44;;;22.03;44.14
6506;BME280;3286;49.858;8.768;2023-07-31T08:18:45;98858.78;;;22.19;44.47
6506;BME280;3286;49.858;8.768;2023-07-31T08:21:12;98860.66;;;21.82;45.58
6506;BME280;3286;49.858;8.768;2023-07-31T08:23:39;98853.19;;;22.08;44.48
6506;BME280;3286;49.858;8.768;2023-07-31T08:26:05;98848.38;;;22.10;44.55
6506;BME280;3286;49.858;8.768;2023-07-31T08:28:32;98839.53;;;21.44;45.65
6506;BME280;3286;49.858;8.768;2023-07-31T08:30:58;98843.44;;;22.31;44.78
6506;BME280;3286;49.858;8.768;2023-07-31T08:33:25;98832.72;;;21.83;45.23
6506;BME280;3286;49.858;8.768;2023-07-31T08:35:53;98834.47;;;21.90;45.34
6506;BME280;3286;49.858;8.768;2023-07-31T08:38:20;98816.16;;;22.39;44.45
6506;BME280;3286;49.858;8.768;2023-07-31T08:40:50;98822.38;;;22.28;44.08
6506;BME280;3286;49.858;8.768;2023-07-31T08:43:18;98828.59;;;21.81;45.56
6506;BME280;3286;49.858;8.768;2023-07-31T08:45:45;98818.78;;;21.63;45.74
6506;BME280;3286;49.858;8.768;2023-07-31T08:48:15;98813.31;;;22.05;44.90
6506;BME280;3286;49.858;8.768;2023-07-31T08:50:42;98806.53;;;22.67;43.94
6506;BME280;3286;49.858;8.768;2023-07-31T08:53:10;98812.78;;;22.85;43.48
6506;BME280;3286;49.858;8.768;2023-07-31T08:55:38;98813.00;;;22.54;43.54
6506;BME280;3286;49.858;8.768;2023-07-31T08:58:05;98813.31;;;21.81;45.33
6506;BME280;3286;49.858;8.768;2023-07-31T09:00:32;98808.84;;;22.23;44.30
6506;BME280;3286;49.858;8.768;2023-07-31T09:03:02;98817.09;;;21.38;46.41
6506;BME280;3286;49.858;8.768;2023-07-31T09:05:31;98804.13;;;22.42;44.64
6506;BME280;3286;49.858;8.768;2023-07-31T09:08:00;98812.88;;;22.61;43.88
6506;BME280;3286;49.858;8.768;2023-07-31T09:10:29;98818.91;;;22.04;44.80
6506;BME280;3286;49.858;8.768;2023-07-31T09:12:57;98808.47;;;22.19;44.47
6506;BME280;3286;49.858;8.768;2023-07-31T09:15:24;98809.41;;;22.37;44.42
6506;BME280;3286;49.858;8.768;2023-07-31T09:17:59;98808.22;;;22.85;44.16
6506;BME280;3286;49.858;8.768;2023-07-31T09:20:26;98787.59;;;22.91;43.72
6506;BME280;3286;49.858;8.768;2023-07-31T09:22:53;98806.38;;;22.21;45.32
6506;BME280;3286;49.858;8.768;2023-07-31T09:25:22;98795.94;;;23.07;42.74
6506;BME280;3286;49.858;8.768;2023-07-31T09:27:52;98802.38;;;22.48;43.26
6506;BME280;3286;49.858;8.768;2023-07-31T09:30:20;98795.94;;;22.78;43.35
6506;BME280;3286;49.858;8.768;2023-07-31T09:32:48;98795.00;;;22.55;43.98
6506;BME280;3286;49.858;8.768;2023-07-31T09:35:19;98797.41;;;22.04;44.96
6506;BME280;3286;49.858;8.768;2023-07-31T09:37:51;98782.97;;;22.75;43.79
6506;BME280;3286;49.858;8.768;2023-07-31T09:40:28;98785.59;;;22.57;43.71
6506;BME280;3286;49.858;8.768;2023-07-31T09:43:01;98786.53;;;22.92;43.07
6506;BME280;3286;49.858;8.768;2023-07-31T09:45:28;98774.53;;;24.02;41.39
6506;BME280;3286;49.858;8.768;2023-07-31T09:47:55;98779.06;;;24.19;41.27
6506;BME280;3286;49.858;8.768;2023-07-31T09:50:23;98782.75;;;24.13;41.03
6506;BME280;3286;49.858;8.768;2023-07-31T09:52:51;98776.03;;;24.60;39.71
6506;BME280;3286;49.858;8.768;2023-07-31T09:55:18;98767.72;;;24.67;40.22
6506;BME280;3286;49.858;8.768;2023-07-31T09:57:46;98763.84;;;24.57;40.71
6506;BME280;3286;49.858;8.768;2023-07-31T10:00:16;98767.84;;;22.45;44.27
6506;BME280;3286;49.858;8.768;2023-07-31T10:02:46;98757.88;;;22.45;43.72
6506;BME280;3286;49.858;8.768;2023-07-31T10:05:14;98762.00;;;23.57;42.43
6506;BME280;3286;49.858;8.768;2023-07-31T10:07:43;98754.47;;;24.38;40.32
6506;BME280;3286;49.858;8.768;2023-07-31T10:10:13;98752.91;;;24.42;40.04
6506;BME280;3286;49.858;8.768;2023-07-31T10:12:41;98750.75;;;24.44;39.72
6506;BME280;3286;49.858;8.768;2023-07-31T10:15:10;98745.25;;;24.34;39.84
6506;BME280;3286;49.858;8.768;2023-07-31T10:17:39;98741.13;;;24.53;40.11
6506;BME280;3286;49.858;8.768;2023-07-31T10:20:06;98736.25;;;24.50;40.46
6506;BME280;3286;49.858;8.768;2023-07-31T10:22:33;98738.28;;;24.38;41.27
6506;BME280;3286;49.858;8.768;2023-07-31T10:25:00;98741.09;;;24.04;41.11
6506;BME280;3286;49.858;8.768;2023-07-31T10:27:27;98737.41;;;24.59;40.26
6506;BME280;3286;49.858;8.768;2023-07-31T10:29:56;98743.00;;;23.47;41.80
6506;BME280;3286;49.858;8.768;2023-07-31T10:32:24;98731.78;;;23.94;41.29
6506;BME280;3286;49.858;8.768;2023-07-31T10:34:52;98736.09;;;24.12;40.87
6506;BME280;3286;49.858;8.768;2023-07-31T10:37:24;98734.31;;;24.23;40.70
6506;BME280;3286;49.858;8.768;2023-07-31T10:39:59;98726.28;;;24.51;40.02
6506;BME280;3286;49.858;8.768;2023-07-31T10:42:33;98728.28;;;24.38;40.19
6506;BME280;3286;49.858;8.768;2023-07-31T10:45:02;98720.97;;;24.61;39.75
6506;BME280;3286;49.858;8.768;2023-07-31T10:47:30;98717.75;;;25.24;39.18
6506;BME280;3286;49.858;8.768;2023-07-31T10:50:18;98722.59;;;25.55;38.54
6506;BME280;3286;49.858;8.768;2023-07-31T10:52:50;98716.16;;;24.96;38.67
6506;BME280;3286;49.858;8.768;2023-07-31T10:55:26;98727.28;;;25.32;38.89
6506;BME280;3286;49.858;8.768;2023-07-31T10:57:53;98724.50;;;24.89;39.49
6506;BME280;3286;49.858;8.768;2023-07-31T11:00:22;98720.91;;;25.49;38.96
6506;BME280;3286;49.858;8.768;2023-07-31T11:03:00;98714.50;;;25.60;37.94
6506;BME280;3286;49.858;8.768;2023-07-31T11:05:46;98701.75;;;26.14;37.35
6506;BME280;3286;49.858;8.768;2023-07-31T11:08:18;98708.78;;;26.10;37.84
6506;BME280;3286;49.858;8.768;2023-07-31T11:10:47;98703.53;;;26.61;36.97
6506;BME280;3286;49.858;8.768;2023-07-31T11:13:14;98693.53;;;26.83;36.80
6506;BME280;3286;49.858;8.768;2023-07-31T11:15:41;98698.31;;;26.24;37.03
6506;BME280;3286;49.858;8.768;2023-07-31T11:18:07;98703.53;;;25.39;37.31
6506;BME280;3286;49.858;8.768;2023-07-31T11:20:36;98710.97;;;24.62;38.50
6506;BME280;3286;49.858;8.768;2023-07-31T11:23:06;98704.31;;;24.42;39.55
6506;BME280;3286;49.858;8.768;2023-07-31T11:25:33;98716.91;;;24.64;39.33
6506;BME280;3286;49.858;8.768;2023-07-31T11:28:03;98709.38;;;24.38;38.14
6506;BME280;3286;49.858;8.768;2023-07-31T11:30:29;98709.63;;;23.70;40.98
6506;BME280;3286;49.858;8.768;2023-07-31T11:32:56;98709.44;;;23.99;40.18
6506;BME280;3286;49.858;8.768;2023-07-31T11:35:23;98701.66;;;23.07;42.67
6506;BME280;3286;49.858;8.768;2023-07-31T11:37:49;98703.44;;;23.52;41.18
6506;BME280;3286;49.858;8.768;2023-07-31T11:40:18;98704.84;;;23.55;41.08
6506;BME280;3286;49.858;8.768;2023-07-31T11:42:45;98703.28;;;23.81;40.78
6506;BME280;3286;49.858;8.768;2023-07-31T11:45:12;98707.97;;;24.08;40.20
6506;BME280;3286;49.858;8.768;2023-07-31T11:47:38;98701.06;;;23.05;42.50
6506;BME280;3286;49.858;8.768;2023-07-31T11:50:10;98697.00;;;23.98;41.34
6506;BME280;3286;49.858;8.768;2023-07-31T11:52:40;98694.06;;;23.99;40.90
6506;BME280;3286;49.858;8.768;2023-07-31T11:55:08;98691.28;;;23.15;42.76
6506;BME280;3286;49.858;8.768;2023-07-31T11:57:40;98685.16;;;23.99;41.46
6506;BME280;3286;49.858;8.768;2023-07-31T12:00:09;98696.81;;;24.49;40.16
6506;BME280;3286;49.858;8.768;2023-07-31T12:02:38;98694.09;;;24.22;40.40
6506;BME280;3286;49.858;8.768;2023-07-31T12:05:06;98691.00;;;24.63;39.32
6506;BME280;3286;49.858;8.768;2023-07-31T12:07:50;98690.28;;;24.18;40.69
6506;BME280;3286;49.858;8.768;2023-07-31T12:10:25;98683.63;;;23.64;41.44
6506;BME280;3286;49.858;8.768;2023-07-31T12:13:02;98687.44;;;24.57;40.38
6506;BME280;3286;49.858;8.768;2023-07-31T12:15:40;98680.25;;;23.17;42.69
6506;BME280;3286;49.858;8.768;2023-07-31T12:18:09;98679.28;;;23.40;42.94
6506;BME280;3286;49.858;8.768;2023-07-31T12:20:40;98669.47;;;23.96;41.67
6506;BME280;3286;49.858;8.768;2023-07-31T12:23:07;98674.13;;;24.23;40.06
6506;BME280;3286;49.858;8.768;2023-07-31T12:25:39;98665.47;;;23.98;40.78
6506;BME280;3286;49.858;8.768;2023-07-31T12:28:07;98661.31;;;22.95;42.99
6506;BME280;3286;49.858;8.768;2023-07-31T12:30:38;98663.50;;;24.38;40.40
6506;BME280;3286;49.858;8.768;2023-07-31T12:33:07;98656.94;;;24.29;40.13
6506;BME280;3286;49.858;8.768;2023-07-31T12:35:38;98658.81;;;21.72;44.57
6506;BME280;3286;49.858;8.768;2023-07-31T12:38:06;98654.22;;;22.71;43.71
6506;BME280;3286;49.858;8.768;2023-07-31T12:40:33;98656.25;;;23.50;41.76
6506;BME280;3286;49.858;8.768;2023-07-31T12:43:01;98652.59;;;22.70;43.56
6506;BME280;3286;49.858;8.768;2023-07-31T12:45:33;98648.19;;;22.81;42.97
6506;BME280;3286;49.858;8.768;2023-07-31T12:48:00;98653.88;;;23.19;42.19
6506;BME280;3286;49.858;8.768;2023-07-31T12:50:28;98648.28;;;23.60;41.24
6506;BME280;3286;49.858;8.768;2023-07-31T12:52:55;98637.03;;;23.46;41.55
6506;BME280;3286;49.858;8.768;2023-07-31T12:55:21;98640.59;;;23.29;41.82
6506;BME280;3286;49.858;8.768;2023-07-31T12:57:48;98630.56;;;23.08;41.74
6506;BME280;3286;49.858;8.768;2023-07-31T13:00:15;98614.97;;;23.49;41.09
6506;BME280;3286;49.858;8.768;2023-07-31T13:02:43;98627.97;;;23.52;41.18
6506;BME280;3286;49.858;8.768;2023-07-31T13:05:10;98617.84;;;23.42;40.80
6506;BME280;3286;49.858;8.768;2023-07-31T13:07:38;98622.56;;;23.97;40.28
6506;BME280;3286;49.858;8.768;2023-07-31T13:10:06;98616.88;;;23.93;40.28
6506;BME280;3286;49.858;8.768;2023-07-31T13:12:33;98619.31;;;23.50;40.80
6506;BME280;3286;49.858;8.768;2023-07-31T13:15:00;98606.06;;;23.93;40.20
6506;BME280;3286;49.858;8.768;2023-07-31T13:17:27;98603.19;;;23.55;41.15
6506;BME280;3286;49.858;8.768;2023-07-31T13:19:55;98611.47;;;23.93;40.54
6506;BME280;3286;49.858;8.768;2023-07-31T13:22:22;98606.91;;;24.21;40.25
6506;BME280;3286;49.858;8.768;2023-07-31T13:24:48;98603.25;;;23.61;40.84
6506;BME280;3286;49.858;8.768;2023-07-31T13:27:15;98595.72;;;23.85;40.41